Unadilla, New York
Current Conditions -  °F | °C
As of 7:53 PM on Wednesday 22 Oct 2014 (Local Time) from KBGM Reporting Station
Light Rain Light Rain  
Wind Chill: 39°   Ceiling: 800
Heat Index: 46°   Visibility: 10mi
Dew Point: 44°   Wind: 18mph
Humidity: 93%   Direction: 350°N
Pressure: 30.01"   Gusts: 25mph
Location:  42.33°N, 75.31°W
Report Text: KBGM 222353Z 35016G22KT 10SM -RA OVC008 08/07 A3001 RMK AO2 RAB23 SLP170 P0000 60000 T00780067 10094 20078 58007
Loading
Personal Weather Stations






























Interactive Weather Map
Tropical Storm Tracking
New forecast layout! Learn more

10-Day Weather Forecast

Advertisements
Track Severe Weather on mobile